Time;durP1;ratioP1;P1;durP2;ratioP2;P2;SDS_P1;SDS_P2;PMS_P1;PMS_P2;Temp;Humidity;BMP_temperature;BMP_pressure;BME280_temperature;BME280_humidity;BME280_pressure;Samples;Min_cycle;Max_cycle;Signal;HPM_P1;HPM_P2
2022/07/06 00:02:11;;;;;;;1.70;1.60;;;17.20;99.90;;;;;;5035017;28;20467;-68
2022/07/06 00:04:38;;;;;;;4.60;1.53;;;17.30;99.90;;;;;;5041420;28;20460;-68
2022/07/06 00:07:05;;;;;;;2.43;2.17;;;16.90;99.90;;;;;;5035076;28;20461;-69
2022/07/06 00:09:32;;;;;;;1.73;1.60;;;16.80;99.90;;;;;;5039407;28;20618;-68
2022/07/06 00:12:01;;;;;;;1.87;1.23;;;16.80;99.90;;;;;;5036548;28;20475;-69
2022/07/06 00:14:28;;;;;;;1.67;1.33;;;16.70;99.90;;;;;;5035517;28;20456;-68
2022/07/06 00:16:54;;;;;;;2.23;1.67;;;16.80;99.90;;;;;;5042976;28;20486;-68
2022/07/06 00:19:21;;;;;;;3.23;2.57;;;16.80;99.90;;;;;;5034845;28;20495;-69
2022/07/06 00:21:48;;;;;;;1.90;1.57;;;16.80;99.90;;;;;;5034900;28;20467;-68
2022/07/06 00:24:17;;;;;;;2.80;1.40;;;16.70;99.90;;;;;;5035037;28;20462;-68
2022/07/06 00:26:44;;;;;;;2.50;1.67;;;16.80;99.90;;;;;;5034447;28;20476;-68
2022/07/06 00:29:12;;;;;;;2.17;1.33;;;16.80;99.90;;;;;;5036058;28;20864;-69
2022/07/06 00:31:39;;;;;;;2.13;1.40;;;16.70;99.90;;;;;;5036638;28;20946;-68
2022/07/06 00:34:06;;;;;;;3.97;2.27;;;16.40;99.90;;;;;;5040838;28;21003;-69
2022/07/06 00:36:33;;;;;;;2.43;2.23;;;16.50;99.90;;;;;;5030360;28;20467;-69
2022/07/06 00:39:00;;;;;;;2.63;2.27;;;16.70;99.90;;;;;;5037128;28;20960;-68
2022/07/06 00:41:26;;;;;;;4.70;2.07;;;16.70;99.90;;;;;;5040411;28;20456;-69
2022/07/06 00:43:56;;;;;;;5.27;2.00;;;16.80;99.90;;;;;;5040576;28;20464;-68
2022/07/06 00:46:28;;;;;;;2.80;1.80;;;16.90;99.90;;;;;;5034018;28;20471;-68
2022/07/06 00:48:55;;;;;;;2.43;1.83;;;16.80;99.90;;;;;;5026037;28;20492;-68
2022/07/06 00:51:26;;;;;;;3.70;1.80;;;16.60;99.90;;;;;;5033361;28;20480;-69
2022/07/06 00:53:55;;;;;;;2.40;1.77;;;16.80;99.90;;;;;;5026680;28;20464;-69
2022/07/06 00:56:22;;;;;;;2.10;1.70;;;16.50;99.90;;;;;;5035180;28;20460;-69
2022/07/06 00:58:49;;;;;;;2.90;1.80;;;16.50;99.90;;;;;;5031873;28;20479;-69
2022/07/06 01:01:16;;;;;;;4.80;2.60;;;16.20;99.90;;;;;;5037340;28;20452;-69
2022/07/06 01:03:44;;;;;;;1.70;1.20;;;16.10;99.90;;;;;;5032961;28;20456;-69
2022/07/06 01:06:11;;;;;;;4.33;2.00;;;16.30;99.90;;;;;;5034687;28;20459;-68
2022/07/06 01:08:39;;;;;;;5.33;2.13;;;16.10;99.90;;;;;;5027783;28;20464;-68
2022/07/06 01:11:06;;;;;;;2.83;1.80;;;16.10;99.90;;;;;;5036444;28;20487;-68
2022/07/06 01:13:34;;;;;;;2.97;2.00;;;16.00;99.90;;;;;;5034058;28;20908;-68
2022/07/06 01:16:04;;;;;;;5.87;1.90;;;16.00;99.90;;;;;;5034228;28;20456;-69
2022/07/06 01:18:31;;;;;;;5.80;1.83;;;15.90;99.90;;;;;;5033130;28;20467;-69
2022/07/06 01:21:09;;;;;;;4.63;1.80;;;15.90;99.90;;;;;;5035119;28;20460;-68
2022/07/06 01:23:41;;;;;;;8.47;2.10;;;15.90;99.90;;;;;;5034289;28;20465;-68
2022/07/06 01:26:10;;;;;;;4.37;2.17;;;16.00;99.90;;;;;;5036705;28;20456;-69
2022/07/06 01:28:37;;;;;;;2.30;1.97;;;16.00;99.90;;;;;;5037196;28;20468;-68
2022/07/06 01:31:04;;;;;;;3.13;2.03;;;16.10;99.90;;;;;;5031072;28;20485;-68
2022/07/06 01:33:31;;;;;;;1.77;1.50;;;16.10;99.90;;;;;;5029468;28;20456;-68
2022/07/06 01:35:58;;;;;;;2.23;1.57;;;16.00;99.90;;;;;;5032158;28;20463;-68
2022/07/06 01:38:26;;;;;;;4.17;1.53;;;15.90;99.90;;;;;;5035300;28;21174;-69
2022/07/06 01:40:53;;;;;;;7.57;1.80;;;15.90;99.90;;;;;;5020042;28;20434;-68
2022/07/06 01:43:20;;;;;;;2.20;2.00;;;15.90;99.90;;;;;;5037951;28;20468;-68
2022/07/06 01:45:47;;;;;;;2.30;1.97;;;15.90;99.90;;;;;;5035004;28;20455;-68
2022/07/06 01:48:14;;;;;;;2.50;1.50;;;15.70;99.90;;;;;;5029626;28;20439;-69
2022/07/06 01:50:41;;;;;;;2.10;2.00;;;15.70;99.90;;;;;;5038779;28;20464;-69
2022/07/06 01:53:07;;;;;;;1.97;1.77;;;15.70;99.90;;;;;;5031839;28;21076;-68
2022/07/06 01:55:36;;;;;;;2.17;1.80;;;15.70;99.90;;;;;;5034325;28;20461;-69
2022/07/06 01:58:02;;;;;;;2.47;1.80;;;15.60;99.90;;;;;;5034582;28;20476;-69
2022/07/06 02:00:29;;;;;;;2.90;1.70;;;15.70;99.90;;;;;;5040880;28;21027;-69
2022/07/06 02:02:56;;;;;;;4.33;1.80;;;15.60;99.90;;;;;;5031413;28;20487;-68
2022/07/06 02:05:23;;;;;;;2.80;1.80;;;15.50;99.90;;;;;;5034026;28;20431;-69
2022/07/06 02:07:50;;;;;;;6.17;3.10;;;15.50;99.90;;;;;;5028723;28;20487;-69
2022/07/06 02:10:17;;;;;;;3.30;1.60;;;15.50;99.90;;;;;;5038224;28;20492;-70
2022/07/06 02:12:46;;;;;;;1.83;1.50;;;15.40;99.90;;;;;;5040140;28;20956;-69
2022/07/06 02:15:13;;;;;;;6.33;1.73;;;15.40;99.90;;;;;;5028770;28;20452;-69
2022/07/06 02:17:40;;;;;;;3.87;2.27;;;15.10;99.90;;;;;;5039257;28;20427;-68
2022/07/06 02:20:07;;;;;;;1.80;1.37;;;15.00;99.90;;;;;;5039694;28;20488;-70
2022/07/06 02:22:37;;;;;;;2.80;1.60;;;15.00;99.90;;;;;;5038740;28;20452;-68
2022/07/06 02:25:05;;;;;;;2.43;1.80;;;15.00;99.90;;;;;;5038242;28;20471;-69
2022/07/06 02:27:32;;;;;;;2.07;1.50;;;14.90;99.90;;;;;;5038002;28;20499;-69
2022/07/06 02:30:00;;;;;;;2.80;2.00;;;14.70;99.90;;;;;;5026449;28;20483;-69
2022/07/06 02:32:27;;;;;;;3.60;1.63;;;14.80;99.90;;;;;;5034516;28;20471;-69
2022/07/06 02:34:54;;;;;;;2.83;1.80;;;14.80;99.90;;;;;;5034149;28;20464;-69
2022/07/06 02:37:20;;;;;;;2.77;1.70;;;15.00;99.90;;;;;;5035246;28;20437;-69
2022/07/06 02:39:47;;;;;;;1.67;1.30;;;15.00;99.90;;;;;;5031340;28;20453;-68
2022/07/06 02:42:14;;;;;;;2.20;1.63;;;15.10;99.90;;;;;;5035803;28;20531;-69
2022/07/06 02:44:41;;;;;;;1.87;1.37;;;15.10;99.90;;;;;;5036783;28;20938;-69
2022/07/06 02:47:09;;;;;;;2.13;1.80;;;15.00;99.90;;;;;;5028791;28;20479;-68
2022/07/06 02:49:36;;;;;;;5.73;2.03;;;14.80;99.90;;;;;;5031048;28;20481;-69
2022/07/06 02:52:03;;;;;;;15.17;8.73;;;14.70;99.90;;;;;;5034988;28;20487;-69
2022/07/06 02:54:30;;;;;;;3.13;2.40;;;14.70;99.90;;;;;;5029173;28;20482;-70
2022/07/06 02:56:57;;;;;;;2.57;1.97;;;14.80;99.90;;;;;;5027114;28;20460;-70
2022/07/06 02:59:24;;;;;;;2.47;1.53;;;14.60;99.90;;;;;;5017691;28;20479;-70
2022/07/06 03:01:51;;;;;;;2.07;1.53;;;14.50;99.90;;;;;;5023112;28;20459;-70
2022/07/06 03:04:19;;;;;;;4.63;1.80;;;14.50;99.90;;;;;;5023685;28;20446;-70
2022/07/06 03:06:49;;;;;;;10.70;2.47;;;14.50;99.90;;;;;;5021652;28;20966;-70
2022/07/06 03:09:16;;;;;;;2.77;2.50;;;14.40;99.90;;;;;;5011567;28;20475;-69
2022/07/06 03:11:42;;;;;;;2.83;1.83;;;14.50;99.90;;;;;;5026318;28;20584;-70
2022/07/06 03:14:09;;;;;;;9.30;1.93;;;14.50;99.90;;;;;;5030968;28;20487;-69
2022/07/06 03:16:36;;;;;;;2.10;1.57;;;14.50;99.90;;;;;;5012609;28;20461;-69
2022/07/06 03:19:03;;;;;;;1.93;1.60;;;14.40;99.90;;;;;;5029582;28;20483;-68
2022/07/06 03:21:31;;;;;;;3.30;1.83;;;14.20;99.90;;;;;;5034202;28;21021;-69
2022/07/06 03:23:58;;;;;;;7.27;2.10;;;14.20;99.90;;;;;;5020681;28;20457;-69
2022/07/06 03:26:25;;;;;;;2.33;1.83;;;14.20;99.90;;;;;;5033041;28;20466;-69
2022/07/06 03:28:52;;;;;;;3.23;1.27;;;14.20;99.90;;;;;;5025297;28;20481;-69
2022/07/06 03:31:19;;;;;;;1.80;1.50;;;14.00;99.90;;;;;;5032057;28;20488;-69
2022/07/06 03:33:46;;;;;;;3.27;1.63;;;14.10;99.90;;;;;;5032451;28;20436;-69
2022/07/06 03:36:13;;;;;;;2.17;1.47;;;14.10;99.90;;;;;;5034053;28;20464;-69
2022/07/06 03:38:41;;;;;;;2.77;2.00;;;14.20;99.90;;;;;;5036478;28;20461;-69
2022/07/06 03:41:08;;;;;;;3.13;1.83;;;14.30;99.90;;;;;;5036423;28;20434;-69
2022/07/06 03:43:35;;;;;;;4.43;1.40;;;14.50;99.90;;;;;;5025919;28;20434;-69
2022/07/06 03:46:02;;;;;;;1.80;1.60;;;14.70;99.90;;;;;;5033480;28;20544;-70
2022/07/06 03:48:29;;;;;;;5.33;4.53;;;14.90;99.90;;;;;;5039784;28;20430;-70
2022/07/06 03:50:56;;;;;;;2.20;2.00;;;15.00;99.90;;;;;;5034047;28;20549;-69
2022/07/06 03:53:23;;;;;;;5.10;1.70;;;14.90;99.90;;;;;;5030023;28;20460;-70
2022/07/06 03:58:32;;;;;;;2.90;2.13;;;15.20;99.90;;;;;;5036904;28;20874;-70
2022/07/06 04:00:59;;;;;;;3.20;1.60;;;15.20;99.90;;;;;;5030966;28;21067;-70
2022/07/06 04:03:26;;;;;;;2.87;1.90;;;15.20;99.90;;;;;;5033317;28;20430;-69
2022/07/06 04:05:53;;;;;;;2.07;1.70;;;15.30;99.90;;;;;;5030121;28;20457;-69
2022/07/06 04:08:20;;;;;;;2.77;2.00;;;15.20;99.90;;;;;;5034910;28;20465;-69
2022/07/06 04:10:47;;;;;;;2.67;1.60;;;15.20;99.90;;;;;;5051039;28;20477;-68
2022/07/06 04:13:16;;;;;;;2.20;1.33;;;15.00;99.90;;;;;;5040053;28;20473;-69
2022/07/06 04:15:42;;;;;;;3.20;1.97;;;15.30;99.90;;;;;;5046922;28;20460;-68
2022/07/06 04:18:09;;;;;;;2.70;1.60;;;15.30;99.90;;;;;;5048936;28;20992;-69
2022/07/06 04:20:36;;;;;;;3.97;1.97;;;15.20;99.90;;;;;;5057151;22;20500;-70
2022/07/06 04:23:03;;;;;;;2.27;1.80;;;15.20;99.90;;;;;;5016080;28;20471;-70
2022/07/06 04:25:30;;;;;;;2.47;1.70;;;15.20;99.90;;;;;;5013108;28;20457;-70
2022/07/06 04:27:57;;;;;;;3.87;2.10;;;15.20;99.90;;;;;;5016478;28;20469;-70
2022/07/06 04:30:25;;;;;;;10.93;2.43;;;15.20;99.90;;;;;;5013807;28;20479;-71
2022/07/06 04:32:52;;;;;;;2.63;2.30;;;15.40;99.90;;;;;;5019565;28;20472;-71
2022/07/06 04:35:19;;;;;;;12.37;2.43;;;15.40;99.90;;;;;;5015912;28;20848;-70
2022/07/06 04:37:46;;;;;;;2.13;1.83;;;15.30;99.90;;;;;;5008713;28;21266;-70
2022/07/06 04:40:13;;;;;;;1.73;1.40;;;15.30;99.90;;;;;;5016512;28;20543;-70
2022/07/06 04:42:40;;;;;;;2.10;1.90;;;15.30;99.90;;;;;;5023408;28;20484;-70
2022/07/06 04:45:09;;;;;;;2.63;1.90;;;15.20;99.90;;;;;;5016093;28;20446;-70
2022/07/06 04:47:37;;;;;;;4.73;2.07;;;15.10;99.90;;;;;;5001535;28;20460;-70
2022/07/06 04:50:05;;;;;;;1.43;1.33;;;15.10;99.90;;;;;;5029866;28;20480;-70
2022/07/06 04:52:31;;;;;;;2.70;2.00;;;15.20;99.90;;;;;;5030149;28;20487;-70
2022/07/06 04:54:58;;;;;;;5.60;1.90;;;14.90;99.90;;;;;;5032308;28;20439;-70
2022/07/06 04:57:25;;;;;;;2.13;1.83;;;15.00;99.90;;;;;;5027153;28;20457;-70
2022/07/06 04:59:53;;;;;;;4.10;1.63;;;15.30;99.90;;;;;;5026788;28;20484;-70
2022/07/06 05:02:19;;;;;;;3.30;2.30;;;15.50;99.90;;;;;;5040403;28;20444;-71
2022/07/06 05:04:48;;;;;;;3.87;1.63;;;15.50;99.90;;;;;;5027758;28;20453;-71
2022/07/06 05:07:15;;;;;;;3.73;2.23;;;15.50;99.90;;;;;;5030381;28;20833;-71
2022/07/06 05:09:41;;;;;;;2.40;1.90;;;15.60;99.90;;;;;;5026795;28;20471;-71
2022/07/06 05:12:10;;;;;;;2.00;1.60;;;15.70;99.90;;;;;;5025090;28;21273;-71
2022/07/06 05:14:37;;;;;;;6.10;1.73;;;15.70;99.90;;;;;;5033766;28;20463;-71
2022/07/06 05:17:04;;;;;;;3.77;2.27;;;15.90;99.90;;;;;;5030611;28;21305;-71
2022/07/06 05:19:31;;;;;;;3.90;1.70;;;16.20;99.90;;;;;;5028629;28;20458;-72
2022/07/06 05:21:59;;;;;;;3.97;2.30;;;16.30;99.90;;;;;;5031044;28;20819;-71
2022/07/06 05:24:26;;;;;;;3.10;1.73;;;16.80;99.90;;;;;;5031013;28;20535;-70
2022/07/06 05:26:53;;;;;;;1.80;1.60;;;17.10;99.90;;;;;;5028193;28;20543;-70
2022/07/06 05:29:20;;;;;;;3.13;1.93;;;17.40;99.90;;;;;;5018164;28;20490;-71
2022/07/06 05:31:47;;;;;;;2.97;1.80;;;17.60;99.90;;;;;;5026428;28;20516;-71
2022/07/06 05:34:14;;;;;;;7.13;1.50;;;17.80;99.90;;;;;;5029772;28;20474;-71
2022/07/06 05:36:40;;;;;;;8.43;1.57;;;17.60;99.90;;;;;;5030111;28;20444;-71
2022/07/06 05:39:09;;;;;;;4.57;1.83;;;17.90;99.90;;;;;;5022484;28;20929;-71
2022/07/06 05:41:35;;;;;;;3.53;1.90;;;17.40;99.90;;;;;;5032137;28;20946;-72
2022/07/06 05:44:02;;;;;;;8.30;1.83;;;17.40;99.90;;;;;;5023948;28;20463;-70
2022/07/06 05:46:29;;;;;;;2.13;1.47;;;17.40;99.90;;;;;;5034906;28;20468;-71
2022/07/06 05:51:40;;;;;;;2.83;1.77;;;17.60;99.90;;;;;;5028194;28;20476;-70
2022/07/06 05:54:09;;;;;;;2.10;1.70;;;17.70;99.90;;;;;;5022493;28;20829;-70
2022/07/06 05:56:35;;;;;;;7.47;1.60;;;17.70;99.90;;;;;;5027575;28;20468;-71
2022/07/06 05:59:02;;;;;;;6.43;2.20;;;17.50;99.90;;;;;;5024841;28;21007;-71
2022/07/06 06:01:29;;;;;;;4.90;2.40;;;17.30;99.90;;;;;;5026655;28;20457;-71
2022/07/06 06:03:56;;;;;;;3.43;2.10;;;17.20;99.90;;;;;;5031871;28;20441;-71
2022/07/06 06:06:22;;;;;;;2.37;1.27;;;17.50;99.90;;;;;;5028417;28;20456;-71
2022/07/06 06:08:49;;;;;;;2.17;1.70;;;17.80;99.90;;;;;;5026338;28;20454;-70
2022/07/06 06:11:17;;;;;;;2.23;2.00;;;17.80;99.90;;;;;;5024840;28;20487;-71
2022/07/06 06:13:44;;;;;;;2.10;1.80;;;17.90;99.90;;;;;;5023382;28;20472;-71
2022/07/06 06:16:11;;;;;;;2.83;1.10;;;18.00;99.90;;;;;;5026142;28;20472;-71
2022/07/06 06:18:38;;;;;;;1.93;1.40;;;18.10;99.90;;;;;;5023215;28;20547;-70
2022/07/06 06:21:05;;;;;;;2.67;2.03;;;18.00;99.90;;;;;;5024881;28;20488;-71
2022/07/06 06:23:32;;;;;;;1.70;1.40;;;17.90;99.90;;;;;;5029666;28;20548;-71
2022/07/06 06:25:59;;;;;;;2.07;1.87;;;18.10;99.90;;;;;;5023435;28;20476;-71
2022/07/06 06:28:27;;;;;;;1.33;1.13;;;18.10;99.90;;;;;;5030216;28;20448;-70
2022/07/06 06:30:54;;;;;;;1.50;1.10;;;17.90;99.90;;;;;;5022592;28;20484;-70
2022/07/06 06:33:22;;;;;;;1.50;1.10;;;18.00;99.90;;;;;;5025944;28;20480;-70
2022/07/06 06:35:50;;;;;;;2.17;1.30;;;18.20;99.90;;;;;;5020985;28;20457;-71
2022/07/06 06:38:18;;;;;;;1.83;1.30;;;18.00;99.90;;;;;;5024074;28;20456;-70
2022/07/06 06:40:45;;;;;;;2.03;1.30;;;17.40;99.90;;;;;;5026954;28;20484;-70
2022/07/06 06:43:12;;;;;;;1.50;1.17;;;17.40;99.90;;;;;;5028910;28;20466;-71
2022/07/06 06:45:40;;;;;;;1.50;1.00;;;17.40;99.90;;;;;;5033869;28;20515;-70
2022/07/06 06:48:07;;;;;;;3.60;1.60;;;17.50;99.90;;;;;;5035474;28;20445;-70
2022/07/06 06:50:34;;;;;;;2.23;1.13;;;17.50;99.90;;;;;;5016467;28;20481;-70
2022/07/06 06:53:01;;;;;;;2.33;1.20;;;17.30;99.90;;;;;;5017894;28;20480;-70
2022/07/06 06:55:28;;;;;;;2.50;1.30;;;17.50;99.90;;;;;;5025094;28;20465;-70
2022/07/06 06:57:55;;;;;;;1.80;1.47;;;17.50;99.90;;;;;;5036926;28;20467;-70
2022/07/06 07:00:21;;;;;;;5.00;1.20;;;17.60;99.90;;;;;;5038141;28;20482;-70
2022/07/06 07:02:50;;;;;;;2.23;1.83;;;17.60;99.90;;;;;;5031775;28;20457;-70
2022/07/06 07:05:16;;;;;;;4.30;1.30;;;17.70;99.90;;;;;;5029681;28;20468;-70
2022/07/06 07:07:43;;;;;;;3.70;1.87;;;17.90;99.90;;;;;;5018839;28;20468;-70
2022/07/06 07:10:11;;;;;;;4.47;2.10;;;18.10;99.90;;;;;;5022056;28;20809;-70
2022/07/06 07:12:44;;;;;;;1.30;1.00;;;18.00;99.90;;;;;;5024070;28;20483;-71
2022/07/06 07:15:11;;;;;;;3.13;0.90;;;18.10;99.90;;;;;;5025653;28;20473;-71
2022/07/06 07:17:38;;;;;;;3.53;1.33;;;18.10;99.90;;;;;;5029720;28;20515;-70
2022/07/06 07:20:08;;;;;;;2.03;1.40;;;18.20;99.90;;;;;;5033995;28;20499;-71
2022/07/06 07:22:35;;;;;;;2.47;1.70;;;18.20;99.90;;;;;;5034039;28;20437;-71
2022/07/06 07:25:02;;;;;;;5.27;1.50;;;18.40;99.90;;;;;;5028074;28;20844;-70
2022/07/06 07:27:29;;;;;;;2.47;1.70;;;18.50;99.90;;;;;;5027738;28;20448;-71
2022/07/06 07:29:55;;;;;;;2.17;1.17;;;18.70;99.90;;;;;;5023019;28;20488;-71
2022/07/06 07:32:22;;;;;;;5.37;1.37;;;19.10;99.90;;;;;;5026159;28;20539;-71
2022/07/06 07:34:49;;;;;;;3.13;1.50;;;19.50;99.90;;;;;;5029639;28;20453;-71
2022/07/06 07:37:17;;;;;;;5.47;1.00;;;19.50;99.90;;;;;;5037074;28;20544;-71
2022/07/06 07:39:44;;;;;;;2.23;1.00;;;19.90;99.90;;;;;;5025609;28;20578;-71
2022/07/06 07:42:11;;;;;;;1.37;0.90;;;19.90;99.90;;;;;;5027375;28;20452;-70
2022/07/06 07:44:38;;;;;;;1.70;1.10;;;20.00;99.90;;;;;;5026538;28;20459;-70
2022/07/06 07:47:05;;;;;;;1.93;1.00;;;20.30;99.90;;;;;;5027519;28;20484;-70
2022/07/06 07:49:32;;;;;;;2.60;1.10;;;20.10;99.90;;;;;;5033498;28;20918;-71
2022/07/06 07:51:59;;;;;;;3.10;1.13;;;20.40;99.90;;;;;;5034366;28;20611;-71
2022/07/06 07:54:27;;;;;;;1.40;1.13;;;20.60;99.90;;;;;;5025622;28;20547;-70
2022/07/06 07:56:55;;;;;;;3.20;1.07;;;20.40;99.90;;;;;;5030316;28;20455;-71
2022/07/06 07:59:22;;;;;;;1.70;1.10;;;20.40;99.90;;;;;;5028057;28;20992;-71
2022/07/06 08:01:49;;;;;;;12.17;1.63;;;20.40;99.90;;;;;;5031034;28;20511;-71
2022/07/06 08:04:16;;;;;;;1.90;0.97;;;20.80;99.90;;;;;;5024995;28;20556;-70
2022/07/06 08:06:43;;;;;;;1.40;1.00;;;20.80;99.90;;;;;;5028003;28;20512;-70
2022/07/06 08:09:10;;;;;;;3.53;1.13;;;21.00;99.90;;;;;;5030227;28;20463;-71
2022/07/06 08:11:38;;;;;;;1.50;1.00;;;21.10;99.90;;;;;;5025375;28;20464;-70
2022/07/06 08:14:05;;;;;;;3.03;0.97;;;20.30;99.90;;;;;;5029483;28;20445;-71
2022/07/06 08:16:32;;;;;;;1.50;1.00;;;20.00;99.90;;;;;;5030900;28;20463;-71
2022/07/06 08:18:59;;;;;;;4.13;1.40;;;19.60;99.90;;;;;;5034341;28;20437;-71
2022/07/06 08:21:26;;;;;;;1.90;1.60;;;19.50;99.90;;;;;;5026503;28;20468;-71
2022/07/06 08:23:54;;;;;;;5.23;1.50;;;19.30;99.90;;;;;;5025064;28;20460;-71
2022/07/06 08:26:21;;;;;;;2.73;1.27;;;19.10;99.90;;;;;;5024981;28;20467;-72
2022/07/06 08:28:50;;;;;;;2.63;1.00;;;19.10;99.90;;;;;;5028122;28;20453;-72
2022/07/06 08:31:17;;;;;;;1.80;1.40;;;19.00;99.90;;;;;;5025196;28;20477;-71
2022/07/06 08:33:44;;;;;;;3.33;1.10;;;19.00;99.90;;;;;;5019425;28;20909;-72
2022/07/06 08:36:11;;;;;;;2.80;1.07;;;19.30;99.90;;;;;;5028059;28;20467;-71
2022/07/06 08:38:38;;;;;;;3.30;1.10;;;19.40;99.90;;;;;;5025129;28;20461;-72
2022/07/06 08:41:07;;;;;;;2.50;1.13;;;19.30;99.90;;;;;;5031145;28;20486;-73
2022/07/06 08:43:34;;;;;;;3.30;1.13;;;19.40;99.90;;;;;;5031148;28;20464;-73
2022/07/06 08:46:03;;;;;;;1.80;1.23;;;19.40;99.90;;;;;;5037515;28;20457;-72
2022/07/06 08:48:37;;;;;;;1.40;0.90;;;19.40;99.90;;;;;;5025022;28;20462;-71
2022/07/06 08:51:05;;;;;;;2.03;1.00;;;19.50;99.90;;;;;;5028773;28;20476;-72
2022/07/06 08:53:31;;;;;;;2.07;1.13;;;19.80;99.90;;;;;;5029151;28;20571;-71
2022/07/06 08:55:58;;;;;;;2.10;1.13;;;19.60;99.90;;;;;;5027151;28;20550;-71
2022/07/06 08:58:27;;;;;;;1.60;1.10;;;19.60;99.90;;;;;;5026734;28;20469;-71
2022/07/06 09:00:55;;;;;;;1.47;1.00;;;19.70;99.90;;;;;;5026368;28;21055;-71
2022/07/06 09:03:23;;;;;;;1.20;1.00;;;19.70;99.90;;;;;;5022238;28;20825;-72
2022/07/06 09:05:52;;;;;;;1.30;0.93;;;20.00;99.90;;;;;;5025491;28;20548;-72
2022/07/06 09:08:20;;;;;;;2.43;0.97;;;20.50;99.90;;;;;;5036810;28;20527;-71
2022/07/06 09:10:47;;;;;;;1.70;1.07;;;20.90;99.90;;;;;;5021094;28;20483;-72
2022/07/06 09:13:14;;;;;;;2.23;1.00;;;21.40;99.90;;;;;;5021502;28;20484;-72
2022/07/06 09:15:40;;;;;;;1.40;1.20;;;22.00;99.90;;;;;;5017485;28;20460;-72
2022/07/06 09:18:08;;;;;;;2.47;1.30;;;22.20;99.90;;;;;;5025511;28;20547;-71
2022/07/06 09:20:37;;;;;;;1.30;0.90;;;22.00;99.90;;;;;;5028512;28;20504;-71
2022/07/06 09:23:06;;;;;;;2.10;1.00;;;21.70;99.90;;;;;;5024186;28;20464;-71
2022/07/06 09:25:34;;;;;;;1.30;0.90;;;22.00;99.90;;;;;;5021516;28;20468;-71
2022/07/06 09:28:01;;;;;;;2.47;1.70;;;22.50;99.90;;;;;;5027005;28;20950;-72
2022/07/06 09:30:30;;;;;;;6.40;1.60;;;22.90;99.90;;;;;;5024822;28;20512;-71
2022/07/06 09:32:58;;;;;;;3.40;1.20;;;22.60;99.90;;;;;;5024455;28;20476;-71
2022/07/06 09:35:27;;;;;;;1.30;0.90;;;23.10;99.90;;;;;;5024016;28;20451;-71
2022/07/06 09:38:06;;;;;;;1.47;1.10;;;23.70;99.90;;;;;;5027696;28;20477;-70
2022/07/06 09:40:34;;;;;;;2.00;1.10;;;24.60;98.80;;;;;;5027983;28;20477;-71
2022/07/06 09:43:12;;;;;;;1.87;0.87;;;24.30;97.80;;;;;;5025213;28;20455;-72
2022/07/06 09:45:41;;;;;;;1.70;1.10;;;24.30;98.10;;;;;;5026907;28;21657;-72
2022/07/06 09:48:11;;;;;;;1.20;0.80;;;24.40;97.30;;;;;;5024262;28;21071;-71
2022/07/06 09:50:44;;;;;;;3.10;0.90;;;24.20;97.10;;;;;;5022061;28;20484;-72
2022/07/06 09:53:12;;;;;;;1.10;0.70;;;23.60;97.50;;;;;;5023791;28;20539;-72
2022/07/06 09:55:43;;;;;;;6.83;1.23;;;23.60;97.40;;;;;;5025403;28;20464;-72
2022/07/06 09:58:10;;;;;;;1.27;0.90;;;23.40;96.60;;;;;;5027351;28;20479;-72
2022/07/06 10:00:37;;;;;;;1.60;0.90;;;23.60;98.20;;;;;;5026271;28;20563;-72
2022/07/06 10:03:05;;;;;;;1.10;0.77;;;25.10;96.70;;;;;;5026321;28;20503;-72
2022/07/06 10:05:33;;;;;;;3.17;0.97;;;26.40;92.90;;;;;;5020234;28;20833;-72
2022/07/06 10:08:01;;;;;;;7.23;6.10;;;26.40;90.90;;;;;;5022210;28;20615;-71
2022/07/06 10:10:30;;;;;;;1.73;1.40;;;27.40;90.30;;;;;;5029256;28;21070;-71
2022/07/06 10:12:58;;;;;;;1.97;1.00;;;27.30;82.50;;;;;;5026040;28;20480;-73
2022/07/06 10:15:27;;;;;;;8.30;1.20;;;25.10;90.00;;;;;;5031364;28;20506;-72
2022/07/06 10:17:55;;;;;;;4.60;1.57;;;24.00;92.20;;;;;;5026956;28;20472;-72
2022/07/06 10:20:22;;;;;;;1.80;1.03;;;23.30;92.90;;;;;;5048208;23;20483;-67
2022/07/06 10:22:49;;;;;;;1.70;1.00;;;23.30;92.80;;;;;;5034262;28;20456;-69
2022/07/06 10:25:17;;;;;;;1.93;0.93;;;23.20;93.20;;;;;;5040175;28;20463;-68
2022/07/06 10:27:47;;;;;;;1.57;1.03;;;22.90;93.70;;;;;;5045562;28;20459;-69
2022/07/06 10:30:15;;;;;;;1.50;0.83;;;23.00;95.00;;;;;;5037660;28;20627;-69
2022/07/06 10:32:44;;;;;;;1.57;0.90;;;23.10;94.00;;;;;;5023678;28;20488;-70
2022/07/06 10:35:11;;;;;;;1.57;1.00;;;23.10;94.80;;;;;;5024498;28;20476;-70
2022/07/06 10:37:38;;;;;;;1.60;0.83;;;23.80;95.30;;;;;;5021939;28;20578;-69
2022/07/06 10:42:58;;;;;;;2.60;0.80;;;25.30;91.30;;;;;;5016809;28;20449;-70
2022/07/06 10:45:53;;;;;;;3.17;1.13;;;24.90;91.90;;;;;;5018291;28;20463;-69
2022/07/06 10:48:21;;;;;;;4.73;1.17;;;24.60;91.40;;;;;;5020926;28;20522;-69
2022/07/06 10:50:50;;;;;;;1.53;1.00;;;25.70;86.90;;;;;;5022168;28;21051;-68
2022/07/06 10:53:18;;;;;;;1.20;0.90;;;25.80;82.70;;;;;;5024101;28;20489;-68
2022/07/06 10:55:47;;;;;;;1.30;0.87;;;25.10;81.40;;;;;;5023796;28;20469;-68
2022/07/06 10:58:16;;;;;;;4.93;1.57;;;24.10;86.10;;;;;;5016014;28;20456;-68
2022/07/06 11:00:53;;;;;;;1.63;1.10;;;23.90;90.00;;;;;;5023442;28;20487;-71
2022/07/06 11:03:38;;;;;;;4.33;1.47;;;23.70;89.70;;;;;;5022085;28;20848;-68
2022/07/06 11:06:12;;;;;;;2.80;0.90;;;23.30;90.60;;;;;;5026033;28;20455;-69
2022/07/06 11:08:53;;;;;;;2.77;0.90;;;23.70;90.70;;;;;;5014185;28;20492;-68
2022/07/06 11:11:22;;;;;;;2.10;1.03;;;23.70;91.50;;;;;;5016902;28;20668;-67
2022/07/06 11:13:52;;;;;;;2.30;1.40;;;23.50;90.90;;;;;;5023269;28;20477;-68
2022/07/06 11:16:21;;;;;;;3.47;1.10;;;22.90;91.40;;;;;;5022278;28;20437;-68
2022/07/06 11:18:49;;;;;;;2.47;1.10;;;22.60;92.20;;;;;;5024201;28;20445;-68
2022/07/06 11:21:22;;;;;;;1.47;1.00;;;22.40;93.60;;;;;;5008436;28;20491;-69
2022/07/06 11:23:49;;;;;;;1.30;0.97;;;22.50;93.20;;;;;;5022599;28;20471;-69
2022/07/06 11:26:17;;;;;;;1.20;0.90;;;22.60;93.50;;;;;;5018807;28;20476;-69
2022/07/06 11:28:46;;;;;;;1.30;1.00;;;22.90;92.70;;;;;;5021872;28;20471;-69
2022/07/06 11:31:15;;;;;;;1.10;0.80;;;22.70;93.40;;;;;;5017294;28;21014;-69
2022/07/06 11:33:42;;;;;;;1.20;0.90;;;23.10;91.80;;;;;;5019918;28;20778;-69
2022/07/06 11:36:17;;;;;;;1.50;1.10;;;24.30;91.70;;;;;;5019304;28;20457;-68
2022/07/06 11:38:44;;;;;;;1.30;1.00;;;25.50;90.10;;;;;;5019536;28;20471;-69
2022/07/06 11:41:13;;;;;;;1.83;0.83;;;25.60;88.80;;;;;;5020008;28;20725;-69
2022/07/06 11:43:43;;;;;;;1.73;1.00;;;25.00;87.50;;;;;;5023470;28;20540;-68
2022/07/06 11:46:27;;;;;;;1.30;0.87;;;25.70;89.50;;;;;;5019951;28;20452;-69
2022/07/06 11:48:55;;;;;;;1.70;1.10;;;26.80;86.80;;;;;;5022626;28;20456;-69
2022/07/06 11:51:23;;;;;;;4.40;1.30;;;27.40;82.50;;;;;;5019483;28;20492;-69
2022/07/06 11:53:54;;;;;;;7.40;1.30;;;28.30;79.80;;;;;;5020576;28;20484;-69
2022/07/06 11:56:25;;;;;;;1.37;0.90;;;28.80;79.10;;;;;;5013355;28;20456;-69
2022/07/06 11:58:53;;;;;;;2.60;1.30;;;28.40;74.60;;;;;;5022037;28;20523;-68
2022/07/06 12:01:22;;;;;;;5.27;1.30;;;28.50;72.60;;;;;;5017030;28;20563;-70
2022/07/06 12:03:49;;;;;;;5.07;1.30;;;28.10;73.50;;;;;;5019089;28;20450;-68
2022/07/06 12:06:18;;;;;;;1.30;0.90;;;28.10;70.50;;;;;;5025143;28;20449;-68
2022/07/06 12:08:47;;;;;;;2.70;1.37;;;27.50;71.70;;;;;;5022874;28;20457;-68
2022/07/06 12:11:22;;;;;;;1.40;0.90;;;27.40;72.30;;;;;;5021365;28;20571;-68
2022/07/06 12:13:49;;;;;;;2.70;1.20;;;26.50;72.10;;;;;;5021932;28;21519;-68
2022/07/06 12:16:17;;;;;;;1.30;0.80;;;25.70;75.40;;;;;;5018795;28;20796;-69
2022/07/06 12:18:47;;;;;;;2.23;1.17;;;26.40;78.00;;;;;;5018880;28;20458;-68
2022/07/06 12:21:16;;;;;;;1.70;1.20;;;27.20;76.10;;;;;;5021066;28;20485;-68
2022/07/06 12:23:46;;;;;;;7.33;1.10;;;28.10;74.60;;;;;;5020403;28;20592;-68
2022/07/06 12:26:14;;;;;;;7.43;1.00;;;28.40;70.00;;;;;;5021516;28;20962;-68
2022/07/06 12:28:41;;;;;;;4.13;1.77;;;28.30;71.10;;;;;;5017984;28;20466;-68
2022/07/06 12:31:08;;;;;;;1.30;0.90;;;27.90;72.20;;;;;;5011977;28;20769;-68
2022/07/06 12:33:35;;;;;;;3.00;0.90;;;27.20;71.50;;;;;;5015542;28;20480;-68
2022/07/06 12:36:16;;;;;;;4.00;1.00;;;26.30;70.50;;;;;;5019231;28;20465;-69
2022/07/06 12:38:48;;;;;;;3.77;0.90;;;25.80;70.00;;;;;;5017803;28;20469;-68
2022/07/06 12:41:32;;;;;;;1.50;0.80;;;25.50;72.70;;;;;;5017170;28;20480;-69
2022/07/06 12:44:05;;;;;;;4.60;1.00;;;26.30;72.20;;;;;;5022241;28;20461;-69
2022/07/06 12:46:35;;;;;;;1.70;0.93;;;25.90;71.20;;;;;;5017283;28;20521;-69
2022/07/06 12:49:10;;;;;;;2.70;0.83;;;25.70;73.20;;;;;;5017306;28;20461;-69
2022/07/06 12:51:53;;;;;;;3.70;1.07;;;26.40;73.50;;;;;;5020886;28;20480;-69
2022/07/06 12:54:20;;;;;;;2.63;1.07;;;27.00;70.90;;;;;;5025217;28;20567;-69
2022/07/06 12:57:08;;;;;;;4.03;1.03;;;25.90;70.80;;;;;;5019343;28;20460;-69
2022/07/06 12:59:38;;;;;;;3.60;1.10;;;25.60;71.50;;;;;;5018671;28;20457;-69